createdAt,value
2018-02-22T00:00:02.975Z,35.37
2018-02-22T00:02:29.167Z,36.27
2018-02-22T00:04:55.588Z,36.10
2018-02-22T00:07:21.728Z,39.03
2018-02-22T00:09:47.976Z,36.37
2018-02-22T00:12:14.147Z,35.43
2018-02-22T00:14:40.364Z,36.40
2018-02-22T00:17:06.604Z,32.57
2018-02-22T00:19:32.817Z,36.60
2018-02-22T00:21:59.057Z,36.00
2018-02-22T00:24:25.256Z,36.63
2018-02-22T00:26:51.426Z,36.00
2018-02-22T00:29:17.589Z,38.33
2018-02-22T00:31:43.941Z,39.30
2018-02-22T00:34:10.092Z,35.40
2018-02-22T00:36:36.305Z,35.90
2018-02-22T00:39:02.575Z,36.63
2018-02-22T00:41:28.768Z,34.60
2018-02-22T00:43:55.014Z,34.87
2018-02-22T00:46:21.199Z,35.40
2018-02-22T00:48:47.367Z,33.50
2018-02-22T00:51:13.573Z,36.40
2018-02-22T00:53:39.736Z,36.83
2018-02-22T00:56:05.913Z,36.90
2018-02-22T00:58:32.155Z,36.33
2018-02-22T01:00:58.385Z,37.43
2018-02-22T01:03:24.553Z,35.13
2018-02-22T01:05:50.753Z,38.03
2018-02-22T01:08:16.953Z,38.70
2018-02-22T01:10:43.224Z,35.40
2018-02-22T01:13:09.498Z,32.50
2018-02-22T01:15:35.854Z,36.77
2018-02-22T01:18:03.174Z,35.87
2018-02-22T01:20:29.428Z,33.93
2018-02-22T01:22:55.580Z,36.90
2018-02-22T01:25:22.080Z,34.40
2018-02-22T01:27:48.290Z,35.07
2018-02-22T01:30:14.551Z,37.20
2018-02-22T01:32:40.824Z,34.40
2018-02-22T01:35:07.468Z,36.00
2018-02-22T01:37:33.892Z,36.23
2018-02-22T01:40:00.512Z,34.83
2018-02-22T01:42:26.777Z,30.47
2018-02-22T01:44:53.031Z,36.03
2018-02-22T01:50:22.775Z,33.17
2018-02-22T01:52:48.938Z,34.27
2018-02-22T01:55:15.577Z,42.77
2018-02-22T01:57:41.780Z,34.90
2018-02-22T02:03:00.147Z,34.33
2018-02-22T02:05:26.490Z,32.33
2018-02-22T02:11:12.053Z,31.57
2018-02-22T02:13:38.470Z,31.87
2018-02-22T02:16:05.213Z,34.47
2018-02-22T02:18:31.420Z,31.90
2018-02-22T02:20:57.686Z,34.30
2018-02-22T02:23:23.817Z,32.73
2018-02-22T02:47:10.067Z,29.60
2018-02-22T02:52:40.624Z,29.83
2018-02-22T02:55:06.793Z,31.67
2018-02-22T02:57:32.928Z,31.73
2018-02-22T02:59:59.147Z,34.63
2018-02-22T03:11:33.420Z,32.47
2018-02-22T03:13:59.755Z,31.43
2018-02-22T03:16:25.971Z,30.83
2018-02-22T03:18:52.129Z,30.07
2018-02-22T03:21:18.359Z,28.37
2018-02-22T03:23:44.513Z,29.93
2018-02-22T03:26:10.683Z,29.40
2018-02-22T03:28:36.861Z,31.43
2018-02-22T03:31:03.091Z,30.33
2018-02-22T03:33:29.280Z,29.23
2018-02-22T03:35:55.512Z,30.87
2018-02-22T03:38:21.664Z,29.87
2018-02-22T03:40:47.872Z,29.77
2018-02-22T03:43:20.956Z,28.60
2018-02-22T03:45:47.242Z,28.70
2018-02-22T03:48:13.413Z,29.10
2018-02-22T03:50:39.650Z,27.70
2018-02-22T03:53:05.868Z,30.70
2018-02-22T03:55:32.034Z,29.10
2018-02-22T03:57:58.169Z,28.80
2018-02-22T04:00:24.350Z,30.87
2018-02-22T04:02:50.517Z,29.10
2018-02-22T04:05:16.664Z,31.00
2018-02-22T04:07:42.896Z,29.83
2018-02-22T04:10:09.068Z,30.17
2018-02-22T04:12:35.278Z,29.90
2018-02-22T04:15:01.483Z,28.23
2018-02-22T04:17:27.628Z,29.60
2018-02-22T04:19:53.856Z,32.37
2018-02-22T04:22:20.051Z,30.33
2018-02-22T04:24:46.189Z,29.77
2018-02-22T04:27:12.361Z,29.30
2018-02-22T04:29:38.562Z,31.30
2018-02-22T04:32:04.782Z,30.20
2018-02-22T04:34:31.007Z,29.70
2018-02-22T04:36:57.148Z,30.73
2018-02-22T04:39:23.334Z,29.90
2018-02-22T04:41:49.650Z,32.30
2018-02-22T04:44:15.894Z,26.90
2018-02-22T04:46:42.195Z,27.67
2018-02-22T04:49:08.351Z,30.70
2018-02-22T04:51:34.603Z,30.87
2018-02-22T04:54:00.732Z,27.27
2018-02-22T04:56:26.894Z,30.47
2018-02-22T04:58:53.067Z,32.43
2018-02-22T05:01:19.286Z,30.37
2018-02-22T05:03:45.482Z,30.40
2018-02-22T05:06:11.625Z,29.83
2018-02-22T05:08:37.762Z,32.23
2018-02-22T05:11:04.003Z,28.70
2018-02-22T05:13:30.159Z,30.60
2018-02-22T05:15:56.326Z,29.60
2018-02-22T05:18:22.519Z,30.33
2018-02-22T05:20:48.653Z,31.33
2018-02-22T05:23:14.885Z,30.63
2018-02-22T05:25:40.987Z,29.00
2018-02-22T05:28:07.128Z,29.30
2018-02-22T05:30:33.338Z,30.60
2018-02-22T05:32:59.568Z,30.03
2018-02-22T05:35:25.746Z,33.77
2018-02-22T05:37:51.892Z,28.87
2018-02-22T05:40:18.078Z,28.37
2018-02-22T05:42:44.284Z,26.37
2018-02-22T05:45:10.474Z,29.27
2018-02-22T05:47:37.368Z,28.83
2018-02-22T05:50:03.516Z,28.13
2018-02-22T05:52:29.701Z,29.67
2018-02-22T05:54:55.907Z,27.90
2018-02-22T05:57:22.057Z,29.40
2018-02-22T05:59:48.197Z,25.73
2018-02-22T06:02:14.426Z,26.90
2018-02-22T06:04:40.669Z,27.57
2018-02-22T06:07:06.855Z,28.63
2018-02-22T06:09:33.052Z,28.30
2018-02-22T06:11:59.235Z,28.90
2018-02-22T06:14:25.451Z,26.53
2018-02-22T06:16:51.672Z,27.27
2018-02-22T06:19:17.877Z,28.43
2018-02-22T06:21:44.106Z,28.97
2018-02-22T06:24:10.267Z,28.60
2018-02-22T06:26:36.427Z,29.40
2018-02-22T06:29:02.630Z,27.83
2018-02-22T06:40:37.710Z,28.50
2018-02-22T07:04:25.463Z,26.30
2018-02-22T07:43:29.244Z,28.83
2018-02-22T07:45:55.651Z,25.57
2018-02-22T07:48:21.885Z,28.10
2018-02-22T07:57:07.929Z,30.20
2018-02-22T08:11:44.996Z,20.77
2018-02-22T08:17:07.724Z,25.50
2018-02-22T08:22:37.576Z,22.27
2018-02-22T08:25:03.782Z,23.23
2018-02-22T08:30:34.029Z,23.90
2018-02-22T08:33:00.358Z,23.40
2018-02-22T08:35:26.587Z,19.07
2018-02-22T08:37:52.796Z,21.40
2018-02-22T08:40:19.011Z,17.33
2018-02-22T08:42:45.325Z,22.33
2018-02-22T08:45:11.504Z,19.00
2018-02-22T08:47:37.674Z,22.67
2018-02-22T08:50:03.900Z,21.83
2018-02-22T08:52:30.147Z,21.10
2018-02-22T08:54:56.527Z,20.50
2018-02-22T08:57:22.619Z,22.47
2018-02-22T08:59:49.319Z,20.83
2018-02-22T09:02:15.561Z,21.17
2018-02-22T09:04:41.694Z,20.87
2018-02-22T09:07:07.878Z,22.63
2018-02-22T09:09:34.080Z,22.10
2018-02-22T09:12:00.286Z,23.47
2018-02-22T09:14:26.512Z,22.13
2018-02-22T09:16:52.722Z,22.30
2018-02-22T09:19:18.871Z,21.97
2018-02-22T09:21:45.042Z,21.00
2018-02-22T09:24:11.249Z,21.13
2018-02-22T09:26:37.381Z,18.90
2018-02-22T09:29:03.596Z,18.77
2018-02-22T09:31:29.853Z,16.20
2018-02-22T09:33:56.051Z,17.03
2018-02-22T09:36:22.196Z,19.77
2018-02-22T09:38:48.338Z,19.83
2018-02-22T09:41:14.496Z,19.97
2018-02-22T09:43:40.725Z,20.93
2018-02-22T09:46:06.888Z,25.80
2018-02-22T09:48:33.044Z,17.43
2018-02-22T09:50:59.237Z,19.70
2018-02-22T09:53:25.423Z,23.70
2018-02-22T09:55:51.761Z,16.77
2018-02-22T09:58:17.980Z,17.63
2018-02-22T10:00:44.166Z,16.97
2018-02-22T10:03:10.373Z,18.13
2018-02-22T10:05:36.541Z,19.30
2018-02-22T10:08:02.712Z,17.10
2018-02-22T10:10:28.916Z,15.47
2018-02-22T10:12:55.104Z,14.13
2018-02-22T10:15:22.079Z,15.17
2018-02-22T10:17:48.337Z,16.00
2018-02-22T10:20:14.513Z,17.77
2018-02-22T10:22:40.723Z,19.70
2018-02-22T10:25:06.934Z,14.80
2018-02-22T10:27:33.157Z,15.60
2018-02-22T10:29:59.327Z,17.43
2018-02-22T10:32:25.529Z,15.43
2018-02-22T10:34:51.718Z,15.37
2018-02-22T10:37:17.926Z,13.43
2018-02-22T10:39:44.104Z,13.93
2018-02-22T10:42:10.247Z,17.10
2018-02-22T10:44:36.393Z,13.57
2018-02-22T10:47:02.645Z,15.37
2018-02-22T10:49:28.869Z,17.67
2018-02-22T10:51:55.037Z,12.30
2018-02-22T10:54:21.208Z,19.43
2018-02-22T10:56:47.305Z,16.63
2018-02-22T10:59:13.540Z,18.70
2018-02-22T11:01:45.886Z,15.20
2018-02-22T11:04:11.998Z,14.67
2018-02-22T11:06:38.123Z,13.67
2018-02-22T11:09:04.339Z,13.53
2018-02-22T11:11:30.456Z,12.70
2018-02-22T11:13:56.588Z,11.87
2018-02-22T11:16:22.737Z,12.20
2018-02-22T11:18:48.919Z,11.53
2018-02-22T11:21:15.044Z,12.97
2018-02-22T11:23:41.193Z,11.57
2018-02-22T11:26:07.340Z,12.97
2018-02-22T11:28:33.519Z,12.03
2018-02-22T11:30:59.620Z,13.73
2018-02-22T11:33:25.862Z,8.87
2018-02-22T11:35:51.963Z,14.53
2018-02-22T11:38:18.109Z,11.03
2018-02-22T11:40:44.246Z,11.87
2018-02-22T11:43:10.359Z,13.57
2018-02-22T11:45:36.493Z,13.47
2018-02-22T11:48:02.655Z,13.60
2018-02-22T11:50:28.781Z,13.53
2018-02-22T11:52:54.915Z,12.67
2018-02-22T11:55:21.016Z,13.83
2018-02-22T11:57:47.204Z,11.60
2018-02-22T12:00:13.388Z,12.17
2018-02-22T12:02:39.511Z,12.13
2018-02-22T12:05:05.632Z,11.53
2018-02-22T12:07:31.821Z,13.37
2018-02-22T12:09:57.925Z,12.70
2018-02-22T12:12:24.037Z,17.00
2018-02-22T12:14:50.223Z,12.37
2018-02-22T12:17:16.343Z,13.67
2018-02-22T12:19:42.493Z,13.47
2018-02-22T12:22:08.613Z,12.87
2018-02-22T12:24:34.738Z,13.13
2018-02-22T12:27:00.852Z,12.80
2018-02-22T12:29:27.061Z,13.23
2018-02-22T12:31:53.163Z,14.60
2018-02-22T12:34:19.264Z,12.03
2018-02-22T12:36:45.406Z,11.40
2018-02-22T12:39:11.570Z,13.63
2018-02-22T12:41:37.712Z,13.20
2018-02-22T12:44:03.889Z,12.97
2018-02-22T12:46:30.018Z,13.40
2018-02-22T12:48:56.191Z,15.77
2018-02-22T12:51:22.309Z,16.00
2018-02-22T12:53:48.487Z,11.87
2018-02-22T12:56:14.620Z,12.10
2018-02-22T12:58:40.731Z,11.27
2018-02-22T13:01:06.843Z,11.30
2018-02-22T13:03:33.015Z,12.43
2018-02-22T13:05:59.171Z,11.57
2018-02-22T13:08:25.458Z,10.43
2018-02-22T13:10:51.573Z,10.07
2018-02-22T13:13:17.719Z,10.17
2018-02-22T13:15:44.028Z,8.80
2018-02-22T13:18:10.229Z,12.17
2018-02-22T13:20:36.342Z,11.63
2018-02-22T13:23:02.506Z,10.80
2018-02-22T13:25:28.612Z,14.67
2018-02-22T13:27:54.789Z,8.70
2018-02-22T13:30:20.951Z,10.57
2018-02-22T13:32:59.418Z,9.87
2018-02-22T13:35:25.523Z,9.40
2018-02-22T13:38:09.512Z,10.10
2018-02-22T13:40:35.658Z,8.57
2018-02-22T13:43:01.780Z,9.60
2018-02-22T13:45:37.702Z,9.30
2018-02-22T13:48:03.857Z,10.63
2018-02-22T13:50:42.179Z,9.13
2018-02-22T13:53:08.364Z,10.50
2018-02-22T13:55:34.478Z,10.73
2018-02-22T13:58:00.652Z,9.30
2018-02-22T14:00:38.879Z,9.83
2018-02-22T14:03:05.016Z,9.57
2018-02-22T14:05:31.114Z,9.40
2018-02-22T14:07:57.268Z,9.33
2018-02-22T14:10:23.449Z,9.90
2018-02-22T14:12:49.577Z,8.33
2018-02-22T14:15:15.661Z,10.40
2018-02-22T14:17:41.822Z,14.47
2018-02-22T14:20:07.941Z,8.77
2018-02-22T14:22:34.056Z,6.80
2018-02-22T14:25:00.222Z,7.93
2018-02-22T14:27:26.394Z,7.17
2018-02-22T14:29:52.646Z,8.63
2018-02-22T14:32:18.765Z,6.87
2018-02-22T14:34:44.876Z,10.27
2018-02-22T14:37:10.997Z,10.30
2018-02-22T14:39:37.163Z,8.40
2018-02-22T14:42:03.264Z,11.73
2018-02-22T14:44:29.361Z,10.87
2018-02-22T14:46:55.509Z,10.40
2018-02-22T14:49:21.672Z,10.17
2018-02-22T14:51:47.789Z,11.63
2018-02-22T14:54:13.907Z,13.17
2018-02-22T14:56:40.054Z,10.13
2018-02-22T14:59:06.213Z,10.60
2018-02-22T15:01:32.303Z,9.80
2018-02-22T15:03:58.430Z,10.70
2018-02-22T15:06:24.544Z,11.33
2018-02-22T15:08:50.712Z,9.77
2018-02-22T15:11:16.797Z,11.67
2018-02-22T15:13:42.919Z,10.00
2018-02-22T15:16:09.051Z,12.73
2018-02-22T15:18:35.264Z,11.30
2018-02-22T15:21:01.425Z,11.17
2018-02-22T15:23:27.593Z,10.50
2018-02-22T15:25:53.690Z,11.10
2018-02-22T15:28:19.857Z,12.63
2018-02-22T15:30:45.977Z,13.20
2018-02-22T15:33:12.162Z,11.63
2018-02-22T15:35:38.320Z,11.93
2018-02-22T15:38:04.459Z,11.17
2018-02-22T15:40:30.612Z,11.43
2018-02-22T15:42:56.710Z,10.17
2018-02-22T15:45:22.794Z,11.13
2018-02-22T15:47:48.947Z,10.93
2018-02-22T15:50:15.077Z,11.87
2018-02-22T15:52:41.179Z,11.33
2018-02-22T15:55:07.463Z,12.60
2018-02-22T15:57:33.566Z,8.83
2018-02-22T15:59:59.702Z,11.40
2018-02-22T16:02:25.865Z,11.33
2018-02-22T16:04:51.996Z,10.10
2018-02-22T16:07:18.114Z,14.87
2018-02-22T16:09:44.274Z,10.90
2018-02-22T16:12:10.410Z,10.63
2018-02-22T16:14:36.531Z,10.50
2018-02-22T16:17:02.691Z,10.70
2018-02-22T16:19:28.863Z,9.63
2018-02-22T16:21:54.976Z,9.70
2018-02-22T16:24:21.160Z,9.07
2018-02-22T16:26:49.811Z,10.00
2018-02-22T16:29:15.990Z,8.03
2018-02-22T16:31:42.147Z,9.47
2018-02-22T16:34:08.266Z,10.07
2018-02-22T16:36:34.377Z,9.63
2018-02-22T16:39:00.534Z,12.70
2018-02-22T16:41:26.648Z,12.03
2018-02-22T16:43:52.762Z,12.53
2018-02-22T16:46:18.901Z,10.00
2018-02-22T16:48:45.084Z,10.07
2018-02-22T16:51:11.213Z,10.20
2018-02-22T16:53:37.358Z,9.83
2018-02-22T16:56:03.488Z,9.63
2018-02-22T16:58:29.699Z,9.60
2018-02-22T17:00:55.831Z,10.03
2018-02-22T17:03:21.936Z,8.60
2018-02-22T17:05:48.163Z,9.77
2018-02-22T17:08:14.296Z,10.43
2018-02-22T17:10:40.459Z,10.30
2018-02-22T17:13:06.599Z,10.40
2018-02-22T17:15:32.713Z,12.17
2018-02-22T17:17:58.802Z,9.40
2018-02-22T17:20:25.111Z,11.03
2018-02-22T17:22:51.272Z,11.10
2018-02-22T17:25:17.263Z,11.70
2018-02-22T17:27:49.525Z,10.50
2018-02-22T17:30:22.316Z,11.33
2018-02-22T17:32:48.441Z,12.13
2018-02-22T17:35:14.583Z,9.87
2018-02-22T17:37:40.756Z,10.83
2018-02-22T17:40:07.816Z,11.37
2018-02-22T17:42:37.942Z,11.60
2018-02-22T17:45:04.161Z,11.07
2018-02-22T17:47:30.352Z,11.70
2018-02-22T17:49:56.544Z,10.73
2018-02-22T17:52:22.687Z,10.37
2018-02-22T17:54:48.837Z,10.33
2018-02-22T17:57:15.035Z,12.57
2018-02-22T17:59:41.274Z,10.93
2018-02-22T18:02:07.464Z,9.63
2018-02-22T18:04:33.576Z,10.70
2018-02-22T18:06:59.824Z,11.20
2018-02-22T18:09:26.004Z,9.73
2018-02-22T18:11:52.179Z,11.70
2018-02-22T18:14:18.315Z,10.67
2018-02-22T18:16:44.435Z,11.13
2018-02-22T18:19:10.599Z,11.00
2018-02-22T18:21:36.757Z,10.43
2018-02-22T18:24:02.911Z,11.30
2018-02-22T18:26:29.046Z,11.20
2018-02-22T18:28:56.027Z,11.37
2018-02-22T18:31:22.165Z,11.40
2018-02-22T18:33:48.291Z,16.90
2018-02-22T18:36:14.484Z,10.83
2018-02-22T18:38:46.588Z,10.10
2018-02-22T18:41:12.785Z,10.47
2018-02-22T18:43:40.747Z,11.27
2018-02-22T18:46:06.885Z,10.70
2018-02-22T18:48:33.000Z,10.03
2018-02-22T18:50:59.175Z,9.77
2018-02-22T18:53:25.280Z,11.50
2018-02-22T18:55:51.422Z,11.20
2018-02-22T18:58:17.612Z,8.63
2018-02-22T19:00:43.779Z,10.17
2018-02-22T19:03:09.913Z,9.47
2018-02-22T19:05:36.115Z,9.97
2018-02-22T19:08:02.222Z,9.57
2018-02-22T19:10:28.409Z,14.07
2018-02-22T19:12:54.546Z,9.50
2018-02-22T19:15:20.706Z,9.93
2018-02-22T19:17:46.892Z,10.13
2018-02-22T19:20:13.069Z,10.87
2018-02-22T19:22:39.197Z,11.33
2018-02-22T19:25:05.317Z,11.23
2018-02-22T19:27:31.473Z,10.67
2018-02-22T19:29:57.788Z,10.90
2018-02-22T19:32:23.949Z,10.77
2018-02-22T19:34:50.072Z,10.07
2018-02-22T19:37:16.215Z,10.53
2018-02-22T19:39:42.410Z,12.40
2018-02-22T19:42:08.511Z,10.37
2018-02-22T19:44:34.626Z,9.73
2018-02-22T19:47:00.787Z,10.53
2018-02-22T19:49:27.026Z,9.63
2018-02-22T19:51:53.153Z,11.20
2018-02-22T19:54:19.260Z,10.10
2018-02-22T19:56:45.430Z,8.87
2018-02-22T19:59:11.663Z,9.97
2018-02-22T20:01:37.914Z,10.20
2018-02-22T20:04:04.083Z,10.10
2018-02-22T20:06:30.346Z,10.97
2018-02-22T20:08:56.582Z,10.90
2018-02-22T20:11:22.791Z,11.23
2018-02-22T20:13:49.037Z,10.27
2018-02-22T20:16:15.270Z,11.13
2018-02-22T20:18:41.414Z,9.47
2018-02-22T20:21:07.771Z,10.67
2018-02-22T20:23:34.774Z,10.83
2018-02-22T20:26:00.937Z,10.53
2018-02-22T20:28:27.155Z,11.83
2018-02-22T20:30:53.379Z,10.30
2018-02-22T20:33:19.553Z,10.03
2018-02-22T20:35:45.731Z,11.47
2018-02-22T20:38:12.024Z,9.37
2018-02-22T20:40:39.057Z,10.80
2018-02-22T20:43:05.218Z,10.70
2018-02-22T20:45:31.425Z,10.60
2018-02-22T20:47:57.587Z,8.53
2018-02-22T20:50:23.848Z,11.17
2018-02-22T20:52:50.216Z,11.13
2018-02-22T20:55:18.354Z,12.03
2018-02-22T20:57:44.576Z,10.70
2018-02-22T21:00:10.862Z,11.80
2018-02-22T21:02:37.182Z,11.37
2018-02-22T21:05:03.360Z,12.37
2018-02-22T21:07:29.629Z,11.70
2018-02-22T21:09:55.905Z,11.70
2018-02-22T21:12:22.079Z,10.93
2018-02-22T21:14:48.298Z,11.07
2018-02-22T21:17:14.529Z,11.30
2018-02-22T21:19:40.763Z,12.43
2018-02-22T21:22:06.890Z,11.30
2018-02-22T21:24:33.086Z,11.80
2018-02-22T21:26:59.262Z,10.33
2018-02-22T21:29:25.481Z,12.10
2018-02-22T21:31:51.626Z,11.03
2018-02-22T21:34:17.878Z,11.60
2018-02-22T21:36:44.361Z,10.30
2018-02-22T21:39:10.502Z,12.33
2018-02-22T21:41:36.729Z,13.97
2018-02-22T21:44:02.965Z,12.70
2018-02-22T21:46:29.106Z,11.90
2018-02-22T21:48:55.240Z,12.13
2018-02-22T21:51:21.477Z,11.63
2018-02-22T21:53:47.718Z,11.87
2018-02-22T21:56:13.907Z,16.00
2018-02-22T21:58:40.176Z,12.63
2018-02-22T22:01:06.343Z,8.60
2018-02-22T22:03:33.276Z,12.57
2018-02-22T22:05:59.476Z,12.03
2018-02-22T22:08:25.628Z,12.23
2018-02-22T22:10:51.842Z,12.67
2018-02-22T22:13:18.068Z,13.67
2018-02-22T22:15:44.404Z,12.07
2018-02-22T22:18:10.564Z,11.30
2018-02-22T22:20:36.718Z,13.63
2018-02-22T22:23:02.897Z,13.03
2018-02-22T22:25:29.159Z,10.93
2018-02-22T22:27:55.337Z,10.87
2018-02-22T22:30:21.565Z,13.50
2018-02-22T22:32:47.777Z,13.93
2018-02-22T22:35:14.044Z,13.07
2018-02-22T22:37:40.200Z,13.27
2018-02-22T22:40:06.348Z,14.60
2018-02-22T22:42:32.531Z,11.40
2018-02-22T22:44:58.723Z,12.17
2018-02-22T22:47:24.905Z,14.00
2018-02-22T22:49:51.043Z,14.27
2018-02-22T22:52:17.220Z,13.43
2018-02-22T22:54:43.470Z,12.67
2018-02-22T22:57:09.611Z,12.60
2018-02-22T22:59:35.816Z,11.93
2018-02-22T23:02:01.968Z,12.10
2018-02-22T23:04:28.151Z,13.60
2018-02-22T23:06:54.336Z,13.20
2018-02-22T23:09:20.512Z,11.57
2018-02-22T23:11:46.652Z,12.73
2018-02-22T23:14:12.798Z,13.27
2018-02-22T23:16:38.996Z,14.30
2018-02-22T23:19:05.194Z,11.80
2018-02-22T23:21:31.305Z,13.37
2018-02-22T23:23:57.503Z,14.00
2018-02-22T23:26:23.679Z,14.80
2018-02-22T23:28:49.909Z,12.60
2018-02-22T23:31:16.103Z,12.10
2018-02-22T23:33:42.315Z,12.67
2018-02-22T23:36:08.516Z,14.37
2018-02-22T23:38:34.749Z,12.20
2018-02-22T23:41:00.930Z,12.77
2018-02-22T23:43:27.183Z,13.77
2018-02-22T23:45:53.428Z,13.03
2018-02-22T23:48:19.612Z,13.17
2018-02-22T23:50:45.784Z,11.97
2018-02-22T23:53:11.968Z,11.97
2018-02-22T23:55:38.221Z,13.13
2018-02-22T23:58:04.392Z,13.60
